ěÝzenÝ letovÚho provozu ╚eskÚ republiky
Letiste: LKPD Aktualizace: 25.05.2024 06:59:38  UTC
 METAR LKPD 25.05. 07:00 ...
METAR LKPD 250700Z 09006KT 060V140 CAVOK 19/15 Q1018 NOSIG RMK BLU BLU=
 TAF LKPD 25.05. 05:00 ...
TAF LKPD 250500Z 2506/2606 10005KT CAVOK      TEMPO 2508/2521 15008KT 7000 SHRA SCT030TCU      PROB40 TEMPO 2510/2518 16010G20KT 4000 TSRA BKN020CB=